createdAt,value
2023-01-18T00:01:14.677Z,25.87
2023-01-18T00:03:44.442Z,26.70
2023-01-18T00:06:11.455Z,25.63
2023-01-18T00:08:39.326Z,34.53
2023-01-18T00:11:13.104Z,29.70
2023-01-18T00:13:39.925Z,32.60
2023-01-18T00:16:10.291Z,22.90
2023-01-18T00:18:36.999Z,30.77
2023-01-18T00:21:05.683Z,27.90
2023-01-18T00:23:35.199Z,33.90
2023-01-18T00:26:08.260Z,32.03
2023-01-18T00:28:35.563Z,29.27
2023-01-18T00:31:05.010Z,28.70
2023-01-18T00:33:34.100Z,31.60
2023-01-18T00:36:04.257Z,29.17
2023-01-18T00:38:34.605Z,24.53
2023-01-18T00:41:03.938Z,26.60
2023-01-18T00:43:39.257Z,29.03
2023-01-18T00:46:10.254Z,26.03
2023-01-18T00:48:37.266Z,29.77
2023-01-18T00:51:04.073Z,26.23
2023-01-18T00:53:30.761Z,29.07
2023-01-18T00:56:00.188Z,36.27
2023-01-18T00:58:28.381Z,27.03
2023-01-18T01:00:55.126Z,28.33
2023-01-18T01:03:21.904Z,26.17
2023-01-18T01:06:07.074Z,26.77
2023-01-18T01:08:33.810Z,29.80
2023-01-18T01:11:12.140Z,28.70
2023-01-18T01:13:57.808Z,29.57
2023-01-18T01:16:43.117Z,29.77
2023-01-18T01:19:28.475Z,28.30
2023-01-18T01:22:13.689Z,27.10
2023-01-18T01:24:58.995Z,28.87
2023-01-18T01:27:26.325Z,22.70
2023-01-18T01:29:52.944Z,23.10
2023-01-18T01:32:19.532Z,36.27
2023-01-18T01:34:46.629Z,21.73
2023-01-18T01:37:13.294Z,30.00
2023-01-18T01:39:39.893Z,32.63
2023-01-18T01:42:11.839Z,31.00
2023-01-18T01:44:43.417Z,25.73
2023-01-18T01:47:23.712Z,27.03
2023-01-18T01:49:54.923Z,28.50
2023-01-18T01:52:31.026Z,29.53
2023-01-18T01:55:14.294Z,24.20
2023-01-18T01:57:55.490Z,26.73
2023-01-18T02:00:24.442Z,28.80
2023-01-18T02:02:54.736Z,29.90
2023-01-18T02:05:21.927Z,33.90
2023-01-18T02:07:49.112Z,31.63
2023-01-18T02:10:15.968Z,26.93
2023-01-18T02:12:45.107Z,39.07
2023-01-18T02:15:14.435Z,32.67
2023-01-18T02:17:50.446Z,33.30
2023-01-18T02:20:35.284Z,25.90
2023-01-18T02:23:34.995Z,28.97
2023-01-18T02:26:29.622Z,27.70
2023-01-18T02:29:01.249Z,29.83
2023-01-18T02:31:34.169Z,24.87
2023-01-18T02:34:07.686Z,25.30
2023-01-18T02:36:51.754Z,38.43
2023-01-18T02:39:38.306Z,29.10
2023-01-18T02:42:32.638Z,24.13
2023-01-18T02:45:18.294Z,30.53
2023-01-18T02:47:45.851Z,33.47
2023-01-18T02:50:21.740Z,33.97
2023-01-18T02:52:50.901Z,35.57
2023-01-18T02:55:29.687Z,29.07
2023-01-18T02:58:05.268Z,33.43
2023-01-18T03:00:34.487Z,27.87
2023-01-18T03:03:01.980Z,27.57
2023-01-18T03:05:30.204Z,35.17
2023-01-18T03:08:16.831Z,30.17
2023-01-18T03:11:10.509Z,35.77
2023-01-18T03:14:07.930Z,37.30
2023-01-18T03:17:03.720Z,34.33
2023-01-18T03:20:07.599Z,34.93
2023-01-18T03:23:09.917Z,37.13
2023-01-18T03:25:40.121Z,29.97
2023-01-18T03:28:28.938Z,34.40
2023-01-18T03:31:17.229Z,32.83
2023-01-18T03:33:50.059Z,43.20
2023-01-18T03:36:20.588Z,39.93
2023-01-18T03:38:50.089Z,35.90
2023-01-18T03:41:17.547Z,44.83
2023-01-18T03:43:44.993Z,37.87
2023-01-18T03:46:12.228Z,40.20
2023-01-18T03:48:38.909Z,41.63
2023-01-18T03:51:24.295Z,39.53
2023-01-18T03:54:16.386Z,41.87
2023-01-18T03:56:56.387Z,41.00
2023-01-18T03:59:34.793Z,40.23
2023-01-18T04:02:02.986Z,40.90
2023-01-18T04:04:29.656Z,42.83
2023-01-18T04:07:03.983Z,34.63
2023-01-18T04:09:30.646Z,34.37
2023-01-18T04:11:57.308Z,35.93
2023-01-18T04:14:31.472Z,41.80
2023-01-18T04:16:58.078Z,35.63
2023-01-18T04:19:24.748Z,33.50
2023-01-18T04:21:54.369Z,39.60
2023-01-18T04:24:24.229Z,39.50
2023-01-18T04:26:57.732Z,32.10
2023-01-18T04:29:34.205Z,33.63
2023-01-18T04:32:00.908Z,34.50
2023-01-18T04:34:27.567Z,38.60
2023-01-18T04:36:54.208Z,32.30
2023-01-18T04:39:25.573Z,34.97
2023-01-18T04:41:57.121Z,34.03
2023-01-18T04:44:24.061Z,33.77
2023-01-18T04:46:53.320Z,39.97
2023-01-18T04:49:23.536Z,35.50
2023-01-18T04:51:57.793Z,38.30
2023-01-18T04:54:24.552Z,40.03
2023-01-18T04:56:51.883Z,39.73
2023-01-18T04:59:26.011Z,41.77
2023-01-18T05:01:52.626Z,40.10
2023-01-18T05:04:24.585Z,36.03
2023-01-18T05:06:54.151Z,35.80
2023-01-18T05:09:29.747Z,32.80
2023-01-18T05:11:58.752Z,41.43
2023-01-18T05:14:25.408Z,36.43
2023-01-18T05:16:52.091Z,38.27
2023-01-18T05:19:30.561Z,36.70
2023-01-18T05:21:57.273Z,33.00
2023-01-18T05:24:29.802Z,33.23
2023-01-18T05:26:59.632Z,33.30
2023-01-18T05:29:26.318Z,36.17
2023-01-18T05:32:01.940Z,36.93
2023-01-18T05:34:32.848Z,39.83
2023-01-18T05:36:59.997Z,38.13
2023-01-18T05:39:26.618Z,39.33
2023-01-18T05:42:00.290Z,40.33
2023-01-18T05:44:27.018Z,43.73
2023-01-18T05:46:56.143Z,38.73
2023-01-18T05:49:32.082Z,39.90
2023-01-18T05:51:59.893Z,43.13
2023-01-18T05:54:26.539Z,41.53
2023-01-18T05:57:05.416Z,45.07
2023-01-18T05:59:32.266Z,44.37
2023-01-18T06:01:58.987Z,42.10
2023-01-18T06:04:33.075Z,45.23
2023-01-18T06:07:01.894Z,45.77
2023-01-18T06:09:30.140Z,47.43
2023-01-18T06:12:05.773Z,41.93
2023-01-18T06:14:32.506Z,43.17
2023-01-18T06:16:59.203Z,45.00
2023-01-18T06:19:25.869Z,48.53
2023-01-18T06:21:55.123Z,41.67
2023-01-18T06:24:22.078Z,46.50
2023-01-18T06:27:19.177Z,36.83
2023-01-18T06:29:51.805Z,43.37
2023-01-18T06:32:18.612Z,48.20
2023-01-18T06:34:45.306Z,46.07
2023-01-18T06:37:20.187Z,44.90
2023-01-18T06:39:46.856Z,40.83
2023-01-18T06:42:13.508Z,46.57
2023-01-18T06:44:41.048Z,46.97
2023-01-18T06:47:07.712Z,44.03
2023-01-18T06:49:37.321Z,47.37
2023-01-18T06:52:04.046Z,41.47
2023-01-18T06:54:30.949Z,42.20
2023-01-18T06:56:57.805Z,41.63
2023-01-18T06:59:24.407Z,46.37
2023-01-18T07:01:54.651Z,40.60
2023-01-18T07:04:24.150Z,36.23
2023-01-18T07:06:53.255Z,35.97
2023-01-18T07:09:27.503Z,42.40
2023-01-18T07:11:54.246Z,43.27
2023-01-18T07:14:26.421Z,48.77
2023-01-18T07:16:56.212Z,35.00
2023-01-18T07:19:26.030Z,41.73
2023-01-18T07:21:53.866Z,38.33
2023-01-18T07:24:38.101Z,44.87
2023-01-18T07:27:05.111Z,39.80
2023-01-18T07:29:31.977Z,38.50
2023-01-18T07:32:02.548Z,40.73
2023-01-18T07:34:29.186Z,41.00
2023-01-18T07:36:55.813Z,42.40
2023-01-18T07:39:42.722Z,39.23
2023-01-18T07:42:19.292Z,38.17
2023-01-18T07:44:45.888Z,41.90
2023-01-18T07:47:12.484Z,37.87
2023-01-18T07:49:46.254Z,45.10
2023-01-18T07:52:12.909Z,37.83
2023-01-18T07:54:39.662Z,38.20
2023-01-18T07:57:06.346Z,37.43
2023-01-18T07:59:33.540Z,34.60
2023-01-18T08:02:05.708Z,28.57
2023-01-18T08:04:32.361Z,42.93
2023-01-18T08:06:59.056Z,34.40
2023-01-18T08:09:25.656Z,40.67
2023-01-18T08:11:54.522Z,40.80
2023-01-18T08:14:28.636Z,34.70
2023-01-18T08:16:55.386Z,42.20
2023-01-18T08:19:29.679Z,38.33
2023-01-18T08:21:56.293Z,36.13
2023-01-18T08:24:26.122Z,45.37
2023-01-18T08:26:55.649Z,38.30
2023-01-18T08:29:22.656Z,33.93
2023-01-18T08:31:55.511Z,34.77
2023-01-18T08:34:24.901Z,40.13
2023-01-18T08:36:53.944Z,36.20
2023-01-18T08:39:28.539Z,37.47
2023-01-18T08:41:55.181Z,34.07
2023-01-18T08:44:25.368Z,31.33
2023-01-18T08:46:54.555Z,38.93
2023-01-18T08:49:28.746Z,35.77
2023-01-18T08:51:58.867Z,34.33
2023-01-18T08:54:25.674Z,36.17
2023-01-18T08:56:54.907Z,30.23
2023-01-18T08:59:32.405Z,35.07
2023-01-18T09:01:59.290Z,33.30
2023-01-18T09:04:32.038Z,33.27
2023-01-18T09:06:59.693Z,42.10
2023-01-18T09:09:26.690Z,36.10
2023-01-18T09:11:57.247Z,35.23
2023-01-18T09:14:26.781Z,34.43
2023-01-18T09:16:56.245Z,31.13
2023-01-18T09:19:25.360Z,31.73
2023-01-18T09:22:11.395Z,35.27
2023-01-18T09:24:47.386Z,30.90
2023-01-18T09:27:14.257Z,36.47
2023-01-18T09:29:40.911Z,33.27
2023-01-18T09:32:15.737Z,32.33
2023-01-18T09:34:42.443Z,34.00
2023-01-18T09:37:09.046Z,31.20
2023-01-18T09:39:50.607Z,33.53
2023-01-18T09:42:21.884Z,36.00
2023-01-18T09:44:52.146Z,31.70
2023-01-18T09:47:24.372Z,27.63
2023-01-18T09:50:04.302Z,42.47
2023-01-18T09:52:54.100Z,33.90
2023-01-18T09:55:34.290Z,27.87
2023-01-18T09:58:12.861Z,32.90
2023-01-18T10:00:45.805Z,31.97
2023-01-18T10:03:23.664Z,34.40
2023-01-18T10:06:08.397Z,38.10
2023-01-18T10:08:55.398Z,33.73
2023-01-18T10:11:48.718Z,31.57
2023-01-18T10:14:18.434Z,33.27
2023-01-18T10:16:50.118Z,33.03
2023-01-18T10:19:22.543Z,33.13
2023-01-18T10:22:13.415Z,34.07
2023-01-18T10:24:55.488Z,31.10
2023-01-18T10:27:35.920Z,32.90
2023-01-18T10:30:25.797Z,30.87
2023-01-18T10:32:55.300Z,29.20
2023-01-18T10:35:33.658Z,33.63
2023-01-18T10:38:04.259Z,33.40
2023-01-18T10:40:38.983Z,36.33
2023-01-18T10:43:10.345Z,33.47
2023-01-18T10:45:37.164Z,34.43
2023-01-18T10:48:30.201Z,36.17
2023-01-18T10:51:06.148Z,31.13
2023-01-18T10:53:35.401Z,32.60
2023-01-18T10:56:05.960Z,34.80
2023-01-18T10:58:44.136Z,33.73
2023-01-18T11:01:16.792Z,35.67
2023-01-18T11:04:09.907Z,37.53
2023-01-18T11:07:04.259Z,33.97
2023-01-18T11:09:59.153Z,33.80
2023-01-18T11:16:14.537Z,37.33
2023-01-18T11:19:00.432Z,34.50
2023-01-18T11:21:45.671Z,36.33
2023-01-18T11:24:30.160Z,36.67
2023-01-18T11:27:15.909Z,39.30
2023-01-18T11:29:50.377Z,35.37
2023-01-18T11:32:33.006Z,35.03
2023-01-18T11:35:00.324Z,35.50
2023-01-18T11:37:34.603Z,36.97
2023-01-18T11:40:27.878Z,32.30
2023-01-18T11:43:16.526Z,35.27
2023-01-18T11:45:53.967Z,37.50
2023-01-18T11:48:44.456Z,38.23
2023-01-18T11:51:45.675Z,34.30
2023-01-18T11:54:46.801Z,39.50
2023-01-18T11:57:16.480Z,32.40
2023-01-18T11:59:48.767Z,36.20
2023-01-18T12:02:21.672Z,38.90
2023-01-18T12:05:16.834Z,37.93
2023-01-18T12:08:18.931Z,45.53
2023-01-18T12:11:18.725Z,40.53
2023-01-18T12:14:00.629Z,35.20
2023-01-18T12:16:41.554Z,37.93
2023-01-18T12:19:27.182Z,36.03
2023-01-18T12:22:03.877Z,34.67
2023-01-18T12:24:56.565Z,37.43
2023-01-18T12:27:44.808Z,38.67
2023-01-18T12:30:41.470Z,37.63
2023-01-18T12:33:12.160Z,37.50
2023-01-18T12:35:51.801Z,37.57
2023-01-18T12:38:25.390Z,34.07
2023-01-18T12:41:13.187Z,29.93
2023-01-18T12:44:00.860Z,31.63
2023-01-18T12:47:02.857Z,30.20
2023-01-18T12:49:34.533Z,30.00
2023-01-18T12:52:17.581Z,30.83
2023-01-18T12:54:51.546Z,30.70
2023-01-18T12:57:19.061Z,31.23
2023-01-18T12:59:56.995Z,26.17
2023-01-18T13:02:35.201Z,30.83
2023-01-18T13:05:35.998Z,29.47
2023-01-18T13:08:23.853Z,32.40
2023-01-18T13:11:06.035Z,27.67
2023-01-18T13:13:37.281Z,32.40
2023-01-18T13:16:39.496Z,28.13
2023-01-18T13:19:13.306Z,32.17
2023-01-18T13:22:00.775Z,27.77
2023-01-18T13:24:46.443Z,27.20
2023-01-18T13:27:21.225Z,23.77
2023-01-18T13:29:50.381Z,25.00
2023-01-18T13:32:31.371Z,24.67
2023-01-18T13:35:20.533Z,26.13
2023-01-18T13:37:55.731Z,20.87
2023-01-18T13:40:50.840Z,28.60
2023-01-18T13:43:41.773Z,24.43
2023-01-18T13:46:08.460Z,35.03
2023-01-18T13:48:48.027Z,22.17
2023-01-18T13:51:39.440Z,24.13
2023-01-18T13:54:38.711Z,29.60
2023-01-18T13:57:05.330Z,24.73
2023-01-18T13:59:34.409Z,25.33
2023-01-18T14:02:26.524Z,25.23
2023-01-18T14:05:25.279Z,18.60
2023-01-18T14:08:00.340Z,21.63
2023-01-18T14:10:33.120Z,22.93
2023-01-18T14:13:04.542Z,20.87
2023-01-18T14:15:49.626Z,24.90
2023-01-18T14:18:29.684Z,20.20
2023-01-18T14:21:29.608Z,19.30
2023-01-18T14:24:06.403Z,21.93
2023-01-18T14:26:35.370Z,22.80
2023-01-18T14:29:10.075Z,19.93
2023-01-18T14:31:44.975Z,18.13
2023-01-18T14:34:30.163Z,22.50
2023-01-18T14:37:02.884Z,22.90
2023-01-18T14:39:33.328Z,22.13
2023-01-18T14:42:02.608Z,19.10
2023-01-18T14:44:56.350Z,28.30
2023-01-18T14:47:31.248Z,22.03
2023-01-18T14:50:00.917Z,20.80
2023-01-18T14:52:35.260Z,20.60
2023-01-18T14:55:02.681Z,25.70
2023-01-18T14:57:34.232Z,20.43
2023-01-18T15:00:17.498Z,23.17
2023-01-18T15:02:44.806Z,27.73
2023-01-18T15:05:22.397Z,22.83
2023-01-18T15:07:56.072Z,20.93
2023-01-18T15:10:34.070Z,24.73
2023-01-18T15:13:02.285Z,20.03
2023-01-18T15:15:33.006Z,19.63
2023-01-18T15:18:05.217Z,21.20
2023-01-18T15:20:32.421Z,22.97
2023-01-18T15:22:59.237Z,22.17
2023-01-18T15:25:37.161Z,21.10
2023-01-18T15:28:18.418Z,23.80
2023-01-18T15:30:53.924Z,21.03
2023-01-18T15:33:22.434Z,23.50
2023-01-18T15:36:05.354Z,23.27
2023-01-18T15:38:41.076Z,26.97
2023-01-18T15:41:18.599Z,24.90
2023-01-18T15:43:46.246Z,26.83
2023-01-18T15:46:15.200Z,23.83
2023-01-18T15:48:50.573Z,24.97
2023-01-18T15:51:18.208Z,19.80
2023-01-18T15:53:51.985Z,27.70
2023-01-18T15:56:23.988Z,22.60
2023-01-18T15:59:03.557Z,25.13
2023-01-18T16:01:34.615Z,28.50
2023-01-18T16:04:08.035Z,27.90
2023-01-18T16:06:37.108Z,24.73
2023-01-18T16:09:17.536Z,25.17
2023-01-18T16:11:46.490Z,21.03
2023-01-18T16:14:46.091Z,24.40
2023-01-18T16:17:14.195Z,27.30
2023-01-18T16:19:46.449Z,26.20
2023-01-18T16:22:24.269Z,24.70
2023-01-18T16:24:58.812Z,23.20
2023-01-18T16:27:27.292Z,23.20
2023-01-18T16:29:57.889Z,21.87
2023-01-18T16:32:31.867Z,24.30
2023-01-18T16:35:16.343Z,23.90
2023-01-18T16:37:47.048Z,25.90
2023-01-18T16:40:19.513Z,27.20
2023-01-18T16:43:04.981Z,27.13
2023-01-18T16:45:35.573Z,24.93
2023-01-18T16:48:02.791Z,28.10
2023-01-18T16:50:29.528Z,27.67
2023-01-18T16:53:03.900Z,21.57
2023-01-18T16:55:30.619Z,30.83
2023-01-18T16:57:57.590Z,22.87
2023-01-18T17:00:32.761Z,24.57
2023-01-18T17:02:59.461Z,23.07
2023-01-18T17:05:27.388Z,27.60
2023-01-18T17:07:54.033Z,26.90
2023-01-18T17:10:26.121Z,24.00
2023-01-18T17:12:52.901Z,27.90
2023-01-18T17:15:20.226Z,20.67
2023-01-18T17:17:47.759Z,22.43
2023-01-18T17:20:32.586Z,26.33
2023-01-18T17:23:08.098Z,27.00
2023-01-18T17:25:34.921Z,23.37
2023-01-18T17:28:01.601Z,22.30
2023-01-18T17:30:28.627Z,31.20
2023-01-18T17:32:55.326Z,21.27
2023-01-18T17:35:25.291Z,24.63
2023-01-18T17:38:00.646Z,21.77
2023-01-18T17:40:40.054Z,24.20
2023-01-18T17:43:28.484Z,24.23
2023-01-18T17:46:05.884Z,27.10
2023-01-18T17:48:37.238Z,19.80
2023-01-18T17:51:11.807Z,19.60
2023-01-18T17:53:39.862Z,21.63
2023-01-18T17:56:17.216Z,26.80
2023-01-18T17:58:47.970Z,20.13
2023-01-18T18:01:25.639Z,20.93
2023-01-18T18:03:52.917Z,28.57
2023-01-18T18:06:31.597Z,22.27
2023-01-18T18:08:59.560Z,24.30
2023-01-18T18:11:26.526Z,22.70
2023-01-18T18:13:54.278Z,21.20
2023-01-18T18:16:25.685Z,25.13
2023-01-18T18:18:53.303Z,23.30
2023-01-18T18:21:20.031Z,22.73
2023-01-18T18:23:46.659Z,23.87
2023-01-18T18:26:13.314Z,22.33
2023-01-18T18:28:42.883Z,24.23
2023-01-18T18:31:15.508Z,24.70
2023-01-18T18:33:42.683Z,28.53
2023-01-18T18:36:14.757Z,23.13
2023-01-18T18:38:41.942Z,23.17
2023-01-18T18:41:09.018Z,23.27
2023-01-18T18:43:43.320Z,27.77
2023-01-18T18:46:10.082Z,25.70
2023-01-18T18:48:36.836Z,28.90
2023-01-18T18:51:14.086Z,21.20
2023-01-18T18:53:41.180Z,23.90
2023-01-18T18:56:10.716Z,23.90
2023-01-18T18:58:41.299Z,23.50
2023-01-18T19:01:18.947Z,24.30
2023-01-18T19:03:45.744Z,22.53
2023-01-18T19:06:17.222Z,29.23
2023-01-18T19:08:44.131Z,29.27
2023-01-18T19:11:11.055Z,22.27
2023-01-18T19:13:37.787Z,21.57
2023-01-18T19:16:07.457Z,23.50
2023-01-18T19:18:34.682Z,22.10
2023-01-18T19:21:08.720Z,24.10
2023-01-18T19:23:37.863Z,23.33
2023-01-18T19:26:04.676Z,23.40
2023-01-18T19:28:40.265Z,20.50
2023-01-18T19:31:07.977Z,20.57
2023-01-18T19:33:37.437Z,20.80
2023-01-18T19:36:12.618Z,19.63
2023-01-18T19:38:45.875Z,22.30
2023-01-18T19:41:13.723Z,23.03
2023-01-18T19:43:41.742Z,21.43
2023-01-18T19:46:11.010Z,18.27
2023-01-18T19:48:39.263Z,19.80
2023-01-18T19:51:21.630Z,21.23
2023-01-18T19:53:48.950Z,22.67
2023-01-18T19:56:15.726Z,29.93
2023-01-18T19:58:42.432Z,19.70
2023-01-18T20:01:10.873Z,21.30
2023-01-18T20:03:39.596Z,27.47
2023-01-18T20:06:11.491Z,24.83
2023-01-18T20:08:40.541Z,20.23
2023-01-18T20:11:12.625Z,21.07
2023-01-18T20:13:42.181Z,23.83
2023-01-18T20:16:08.999Z,19.60
2023-01-18T20:18:43.387Z,20.60
2023-01-18T20:21:13.967Z,23.73
2023-01-18T20:23:43.682Z,20.80
2023-01-18T20:26:14.513Z,26.40
2023-01-18T20:28:42.093Z,20.00
2023-01-18T20:31:10.345Z,19.63
2023-01-18T20:33:38.457Z,20.13
2023-01-18T20:36:08.752Z,18.03
2023-01-18T20:38:38.162Z,24.17
2023-01-18T20:41:17.870Z,17.73
2023-01-18T20:43:44.505Z,18.70
2023-01-18T20:46:11.778Z,19.97
2023-01-18T20:48:57.132Z,17.50
2023-01-18T20:51:34.132Z,17.00
2023-01-18T20:54:02.218Z,20.70
2023-01-18T20:56:30.564Z,16.87
2023-01-18T20:59:06.264Z,21.13
2023-01-18T21:01:33.398Z,21.30
2023-01-18T21:04:01.829Z,19.87
2023-01-18T21:06:35.872Z,16.33
2023-01-18T21:09:02.761Z,17.40
2023-01-18T21:11:29.754Z,20.23
2023-01-18T21:14:04.974Z,20.50
2023-01-18T21:16:31.766Z,18.40
2023-01-18T21:19:01.424Z,18.40
2023-01-18T21:21:35.838Z,22.80
2023-01-18T21:24:02.670Z,20.57
2023-01-18T21:26:29.345Z,21.20
2023-01-18T21:28:56.079Z,22.10
2023-01-18T21:31:23.072Z,17.17
2023-01-18T21:33:53.384Z,18.47
2023-01-18T21:36:22.221Z,20.60
2023-01-18T21:38:49.832Z,16.53
2023-01-18T21:41:34.772Z,20.93
2023-01-18T21:44:19.922Z,15.33
2023-01-18T21:46:49.075Z,21.17
2023-01-18T21:49:49.434Z,15.80
2023-01-18T21:52:37.691Z,19.00
2023-01-18T21:55:04.643Z,20.70
2023-01-18T21:57:31.339Z,17.00
2023-01-18T21:59:58.097Z,20.00
2023-01-18T22:02:24.934Z,19.30
2023-01-18T22:05:00.836Z,18.97
2023-01-18T22:07:28.259Z,15.37
2023-01-18T22:10:04.164Z,14.63
2023-01-18T22:12:33.366Z,15.30
2023-01-18T22:15:01.954Z,15.83
2023-01-18T22:17:28.866Z,18.80
2023-01-18T22:19:55.628Z,15.30
2023-01-18T22:22:22.305Z,14.10
2023-01-18T22:24:48.943Z,10.53
2023-01-18T22:27:15.666Z,14.07
2023-01-18T22:29:42.318Z,13.57
2023-01-18T22:32:08.946Z,15.60
2023-01-18T22:34:40.545Z,15.70
2023-01-18T22:37:07.364Z,24.00
2023-01-18T22:39:34.053Z,16.10
2023-01-18T22:42:00.661Z,16.13
2023-01-18T22:44:29.823Z,15.70
2023-01-18T22:46:59.544Z,15.10
2023-01-18T22:49:29.240Z,19.00
2023-01-18T22:51:58.728Z,15.30
2023-01-18T22:54:34.225Z,11.80
2023-01-18T22:57:01.001Z,12.13
2023-01-18T22:59:27.631Z,14.73
2023-01-18T23:01:58.375Z,19.10
2023-01-18T23:04:27.119Z,13.77
2023-01-18T23:06:58.522Z,19.07
2023-01-18T23:09:28.838Z,14.93
2023-01-18T23:11:57.205Z,13.10
2023-01-18T23:14:42.451Z,14.87
2023-01-18T23:17:29.631Z,19.67
2023-01-18T23:19:56.324Z,11.50
2023-01-18T23:22:22.893Z,13.90
2023-01-18T23:24:49.510Z,14.43
2023-01-18T23:27:16.187Z,20.03
2023-01-18T23:29:42.881Z,12.03
2023-01-18T23:32:09.548Z,13.33
2023-01-18T23:34:36.157Z,16.50
2023-01-18T23:37:02.835Z,12.30
2023-01-18T23:39:48.216Z,13.80
2023-01-18T23:42:33.177Z,13.70
2023-01-18T23:45:18.579Z,12.50
2023-01-18T23:48:03.935Z,14.03
2023-01-18T23:50:49.357Z,15.10
2023-01-18T23:53:34.631Z,13.20
2023-01-18T23:56:01.391Z,13.50
2023-01-18T23:58:28.121Z,14.07
